Time;durP1;ratioP1;P1;durP2;ratioP2;P2;SDS_P1;SDS_P2;PMS_P1;PMS_P2;Temp;Humidity;BMP_temperature;BMP_pressure;BME280_temperature;BME280_humidity;BME280_pressure;Samples;Min_cycle;Max_cycle;Signal;HPM_P1;HPM_P2
2022/12/25 00:01:59;;;;;;;25.67;7.00;;;8.90;99.90;;;;;;5034560;28;20382;-84
2022/12/25 00:04:25;;;;;;;28.67;9.33;;;8.80;99.90;;;;;;5018439;28;20036;-84
2022/12/25 00:06:50;;;;;;;20.00;6.97;;;8.90;99.90;;;;;;5018196;28;20037;-84
2022/12/25 00:09:16;;;;;;;28.73;7.10;;;9.00;99.90;;;;;;5018126;28;20097;-84
2022/12/25 00:11:42;;;;;;;25.73;7.40;;;9.00;99.90;;;;;;5034581;28;20022;-84
2022/12/25 00:14:07;;;;;;;26.50;6.73;;;9.00;99.90;;;;;;5001722;28;20124;-83
2022/12/25 00:16:33;;;;;;;27.30;6.53;;;9.00;99.90;;;;;;5034111;28;20028;-83
2022/12/25 00:19:00;;;;;;;22.83;7.23;;;9.00;99.90;;;;;;5017639;28;20038;-83
2022/12/25 00:21:26;;;;;;;29.03;7.33;;;9.10;99.90;;;;;;5035399;28;20025;-84
2022/12/25 00:23:57;;;;;;;26.83;7.67;;;9.10;99.90;;;;;;5001523;28;20022;-83
2022/12/25 00:26:24;;;;;;;30.27;7.43;;;9.10;99.90;;;;;;5035420;28;20046;-83
2022/12/25 00:28:55;;;;;;;22.80;6.50;;;9.20;99.90;;;;;;5033952;28;20025;-83
2022/12/25 00:31:21;;;;;;;22.07;6.10;;;9.20;99.90;;;;;;5034299;28;20124;-82
2022/12/25 00:33:48;;;;;;;25.13;7.73;;;9.20;99.90;;;;;;5033828;28;20021;-81
2022/12/25 00:36:16;;;;;;;30.13;7.30;;;9.30;99.90;;;;;;5033644;28;20445;-81
2022/12/25 00:38:42;;;;;;;18.77;6.30;;;9.20;99.90;;;;;;5035543;28;20123;-82
2022/12/25 00:41:15;;;;;;;23.50;6.10;;;9.20;99.90;;;;;;5033289;28;20112;-82
2022/12/25 00:43:42;;;;;;;25.87;7.20;;;9.30;99.90;;;;;;5035167;28;20125;-84
2022/12/25 00:46:09;;;;;;;20.67;6.37;;;9.20;99.90;;;;;;5033052;28;20052;-84
2022/12/25 00:48:35;;;;;;;23.97;7.27;;;9.30;99.90;;;;;;5017698;28;20025;-83
2022/12/25 00:51:04;;;;;;;20.97;7.50;;;9.30;99.90;;;;;;5033237;28;20044;-85
2022/12/25 00:53:30;;;;;;;27.20;7.20;;;9.30;99.90;;;;;;5034401;28;20385;-84
2022/12/25 00:55:58;;;;;;;23.80;7.20;;;9.30;99.90;;;;;;5034363;28;20025;-85
2022/12/25 00:58:27;;;;;;;24.60;7.10;;;9.30;99.90;;;;;;5034164;28;20095;-83
2022/12/25 01:00:53;;;;;;;22.47;6.17;;;9.30;99.90;;;;;;5034627;28;20083;-84
2022/12/25 01:03:18;;;;;;;18.90;5.87;;;9.30;99.90;;;;;;5034705;28;20026;-83
2022/12/25 01:05:54;;;;;;;16.93;5.90;;;9.30;99.90;;;;;;5035046;28;20077;-84
2022/12/25 01:08:20;;;;;;;26.67;6.73;;;9.30;99.90;;;;;;5035076;28;20032;-83
2022/12/25 01:10:53;;;;;;;16.37;5.07;;;9.30;99.90;;;;;;5034070;28;20037;-84
2022/12/25 01:13:19;;;;;;;21.97;6.43;;;9.40;99.90;;;;;;5033280;28;20032;-84
2022/12/25 01:15:44;;;;;;;24.93;6.47;;;9.40;99.90;;;;;;5033418;28;20033;-84
2022/12/25 01:18:10;;;;;;;25.87;7.57;;;9.40;99.90;;;;;;5016861;28;20041;-83
2022/12/25 01:20:35;;;;;;;32.13;6.60;;;9.40;99.90;;;;;;5032945;28;20115;-82
2022/12/25 01:23:01;;;;;;;22.83;6.03;;;9.40;99.90;;;;;;5033333;28;20108;-84
2022/12/25 01:25:27;;;;;;;19.23;5.50;;;9.40;99.90;;;;;;5016819;28;20042;-83
2022/12/25 01:27:52;;;;;;;22.80;7.40;;;9.40;99.90;;;;;;5033134;28;20034;-82
2022/12/25 01:30:18;;;;;;;21.47;5.67;;;9.40;99.90;;;;;;5034029;28;20478;-83
2022/12/25 01:32:43;;;;;;;21.23;7.23;;;9.40;99.90;;;;;;5034406;28;20056;-83
2022/12/25 01:35:09;;;;;;;29.23;7.47;;;9.50;99.90;;;;;;5033138;28;20382;-83
2022/12/25 01:37:35;;;;;;;22.33;6.80;;;9.50;99.90;;;;;;5049542;28;20080;-83
2022/12/25 01:40:00;;;;;;;28.40;6.80;;;9.50;99.90;;;;;;5032698;28;20444;-83
2022/12/25 01:42:27;;;;;;;24.10;7.10;;;9.50;99.90;;;;;;5015970;28;20049;-83
2022/12/25 01:44:53;;;;;;;23.97;8.03;;;9.50;99.90;;;;;;5032479;28;20052;-83
2022/12/25 01:47:18;;;;;;;20.43;6.73;;;9.60;99.90;;;;;;5033853;28;20026;-83
2022/12/25 01:49:48;;;;;;;22.43;6.30;;;9.60;99.90;;;;;;5033782;28;20036;-84
2022/12/25 01:52:18;;;;;;;23.93;7.23;;;9.50;99.90;;;;;;5032892;28;20044;-84
2022/12/25 01:55:03;;;;;;;20.43;6.13;;;9.60;99.90;;;;;;5032737;28;20108;-84
2022/12/25 01:57:33;;;;;;;19.00;5.83;;;9.60;99.90;;;;;;5034322;28;20029;-84
2022/12/25 01:59:59;;;;;;;24.27;6.13;;;9.60;99.90;;;;;;5034498;28;20029;-85
2022/12/25 02:02:27;;;;;;;23.63;6.00;;;9.60;99.90;;;;;;5034376;28;20057;-85
2022/12/25 02:05:18;;;;;;;21.13;6.43;;;9.60;99.90;;;;;;5033143;28;20022;-85
2022/12/25 02:07:45;;;;;;;18.10;5.87;;;9.60;99.90;;;;;;5033055;28;20025;-85
2022/12/25 02:10:11;;;;;;;28.77;6.20;;;9.60;99.90;;;;;;5015988;28;20026;-85
2022/12/25 02:12:38;;;;;;;32.03;6.90;;;9.60;99.90;;;;;;5034081;28;20480;-85
2022/12/25 02:15:11;;;;;;;19.53;5.97;;;9.70;99.90;;;;;;5033985;28;20036;-85
2022/12/25 02:18:01;;;;;;;20.95;6.15;;;9.60;99.90;;;;;;5033598;28;20026;-85
2022/12/25 02:20:47;;;;;;;22.83;7.90;;;9.70;99.90;;;;;;5033206;28;20021;-85
2022/12/25 02:23:49;;;;;;;22.87;6.80;;;9.70;99.90;;;;;;5022044;28;20064;-86
2022/12/25 02:26:49;;;;;;;21.60;6.10;;;9.70;99.90;;;;;;5033667;28;20073;-84
2022/12/25 02:29:23;;;;;;;18.20;5.77;;;9.70;99.90;;;;;;5033441;28;20374;-85
2022/12/25 02:32:03;;;;;;;19.80;6.53;;;9.70;99.90;;;;;;5032211;28;20032;-85
2022/12/25 02:34:35;;;;;;;19.40;6.53;;;9.70;99.90;;;;;;5033315;28;20030;-85
2022/12/25 02:37:11;;;;;;;25.13;7.63;;;9.70;99.90;;;;;;5048790;28;20029;-84
2022/12/25 02:39:58;;;;;;;20.40;6.47;;;9.70;99.90;;;;;;5032961;28;20083;-84
2022/12/25 03:08:02;;;;;;;17.83;6.47;;;9.30;99.90;;;;;;5033670;28;20036;-84
2022/12/25 03:13:21;;;;;;;20.40;7.47;;;9.30;99.90;;;;;;5039007;28;20504;-85
2022/12/25 03:18:33;;;;;;;19.50;7.33;;;9.30;99.90;;;;;;5037030;28;20135;-84
2022/12/25 03:31:10;;;;;;;;;;;9.30;99.90;;;;;;5036983;28;20103;-86
2022/12/25 03:32:44;;;;;;;19.77;5.70;;;9.40;99.90;;;;;;5036477;28;20410;-84
2022/12/25 03:35:30;;;;;;;17.30;6.90;;;9.30;99.90;;;;;;5026649;28;20123;-85
2022/12/25 04:37:24;;;;;;;12.80;4.55;;;9.60;99.90;;;;;;5025595;28;20201;-83
2022/12/25 04:39:50;;;;;;;12.97;4.87;;;9.60;99.90;;;;;;5017798;28;20116;-83
2022/12/25 04:42:16;;;;;;;13.03;4.23;;;9.60;99.90;;;;;;5017247;28;20041;-83
2022/12/25 04:44:42;;;;;;;16.30;4.97;;;9.60;99.90;;;;;;5035635;28;20025;-83
2022/12/25 04:47:07;;;;;;;9.47;4.77;;;9.60;99.90;;;;;;5033449;28;20045;-83
2022/12/25 04:49:33;;;;;;;13.70;4.37;;;9.70;99.90;;;;;;5033679;28;20034;-83
2022/12/25 04:52:04;;;;;;;11.03;4.13;;;9.60;99.90;;;;;;5028016;28;20029;-83
2022/12/25 04:54:30;;;;;;;17.67;4.87;;;9.60;99.90;;;;;;5033463;28;20485;-82
2022/12/25 04:56:56;;;;;;;11.30;4.57;;;9.60;99.90;;;;;;5048733;28;20076;-83
2022/12/25 04:59:21;;;;;;;15.97;4.83;;;9.70;99.90;;;;;;5033750;28;20080;-84
2022/12/25 05:01:47;;;;;;;14.67;4.67;;;9.60;99.90;;;;;;5001182;28;20036;-84
2022/12/25 05:04:13;;;;;;;11.13;3.57;;;9.60;99.90;;;;;;5033819;28;20084;-84
2022/12/25 05:06:39;;;;;;;14.63;4.17;;;9.60;99.90;;;;;;4999684;28;20037;-84
2022/12/25 05:09:05;;;;;;;10.73;4.00;;;9.60;99.90;;;;;;5033750;28;20033;-84
2022/12/25 05:11:30;;;;;;;12.80;4.57;;;9.60;99.90;;;;;;5034604;28;20040;-84
2022/12/25 05:13:56;;;;;;;14.37;4.10;;;9.50;99.90;;;;;;5033612;28;20094;-84
2022/12/25 05:16:22;;;;;;;12.60;4.00;;;9.50;99.90;;;;;;5033036;28;20021;-84
2022/12/25 05:18:49;;;;;;;9.10;3.93;;;9.50;99.90;;;;;;5034582;28;20044;-82
2022/12/25 05:21:16;;;;;;;12.67;4.40;;;9.50;99.90;;;;;;5016551;28;20042;-82
2022/12/25 05:23:47;;;;;;;16.10;4.13;;;9.50;99.90;;;;;;5033339;28;20597;-82
2022/12/25 05:26:14;;;;;;;10.70;4.10;;;9.40;99.90;;;;;;5017336;28;20046;-83
2022/12/25 05:28:39;;;;;;;9.37;4.07;;;9.40;99.90;;;;;;5033208;28;20036;-83
2022/12/25 05:31:05;;;;;;;13.30;4.13;;;9.40;99.90;;;;;;5033223;28;20124;-83
2022/12/25 05:33:31;;;;;;;14.53;4.07;;;9.40;99.90;;;;;;5000322;28;20029;-83
2022/12/25 05:35:56;;;;;;;14.37;4.53;;;9.40;99.90;;;;;;5033937;28;20025;-80
2022/12/25 05:38:22;;;;;;;13.63;4.13;;;9.30;99.90;;;;;;5032593;28;20026;-83
2022/12/25 05:40:50;;;;;;;9.33;4.33;;;9.30;99.90;;;;;;5032577;28;20028;-83
2022/12/25 05:43:18;;;;;;;12.63;4.30;;;9.30;99.90;;;;;;5031813;28;20049;-83
2022/12/25 05:45:43;;;;;;;13.30;4.57;;;9.20;99.90;;;;;;5012860;28;20038;-83
2022/12/25 05:48:09;;;;;;;10.77;4.60;;;9.20;99.90;;;;;;5033407;28;20028;-83
2022/12/25 05:50:36;;;;;;;13.33;4.77;;;9.10;99.90;;;;;;5024176;28;20362;-84
2022/12/25 05:53:04;;;;;;;13.57;5.20;;;9.10;99.90;;;;;;5025412;28;20413;-84
2022/12/25 05:55:33;;;;;;;12.83;4.37;;;9.10;99.90;;;;;;5012867;28;20046;-83
2022/12/25 05:57:59;;;;;;;12.60;5.07;;;9.10;99.90;;;;;;5047270;28;20026;-86
2022/12/25 06:00:25;;;;;;;14.70;4.47;;;9.00;99.90;;;;;;5014559;28;20034;-86
2022/12/25 06:02:50;;;;;;;13.90;4.57;;;9.00;99.90;;;;;;5016649;28;20082;-85
2022/12/25 06:05:16;;;;;;;13.43;4.87;;;9.00;99.90;;;;;;5016255;28;21996;-86
2022/12/25 06:07:41;;;;;;;10.57;4.23;;;9.00;99.90;;;;;;5016109;28;20030;-85
2022/12/25 06:10:07;;;;;;;14.43;4.97;;;9.00;99.90;;;;;;5033205;28;20030;-85
2022/12/25 06:12:33;;;;;;;11.33;4.40;;;9.00;99.90;;;;;;5034174;28;20033;-87
2022/12/25 06:14:59;;;;;;;10.83;5.10;;;9.00;99.90;;;;;;5033265;28;20104;-86
2022/12/25 06:17:25;;;;;;;9.63;4.40;;;9.00;99.90;;;;;;5032758;28;20083;-86
2022/12/25 06:19:51;;;;;;;9.23;4.70;;;9.00;99.90;;;;;;5032571;28;20036;-84
2022/12/25 06:22:17;;;;;;;11.77;4.37;;;9.00;99.90;;;;;;5032305;28;20033;-85
2022/12/25 06:24:43;;;;;;;11.10;4.90;;;8.90;99.90;;;;;;5032553;28;20029;-85
2022/12/25 06:27:08;;;;;;;10.77;3.77;;;9.00;99.90;;;;;;5033497;28;20544;-86
2022/12/25 06:29:34;;;;;;;10.53;4.27;;;9.00;99.90;;;;;;5032877;28;20508;-85
2022/12/25 06:31:59;;;;;;;10.27;4.30;;;8.90;99.90;;;;;;5015774;28;20080;-83
2022/12/25 06:34:25;;;;;;;12.50;4.90;;;9.00;99.90;;;;;;5032031;28;20036;-82
2022/12/25 06:36:52;;;;;;;13.13;4.63;;;9.00;99.90;;;;;;5015218;28;20036;-83
2022/12/25 06:39:20;;;;;;;15.70;4.50;;;9.00;99.90;;;;;;5032282;28;20460;-83
2022/12/25 06:41:46;;;;;;;9.43;4.07;;;9.10;99.90;;;;;;5015884;28;20045;-83
2022/12/25 06:44:13;;;;;;;11.93;4.07;;;9.10;99.90;;;;;;5031976;28;20026;-83
2022/12/25 06:46:38;;;;;;;10.53;4.27;;;9.10;99.90;;;;;;5032486;28;20445;-83
2022/12/25 06:49:04;;;;;;;12.67;4.20;;;9.10;99.90;;;;;;5032928;28;20025;-83
2022/12/25 06:51:31;;;;;;;9.93;3.20;;;9.20;99.90;;;;;;5033524;28;20045;-83
2022/12/25 06:53:58;;;;;;;12.23;3.67;;;9.20;99.90;;;;;;5033325;28;20457;-83
2022/12/25 06:56:26;;;;;;;7.53;3.53;;;9.20;99.90;;;;;;5032494;28;20041;-82
2022/12/25 06:59:00;;;;;;;6.70;3.07;;;9.30;99.90;;;;;;5033152;28;20036;-83
2022/12/25 07:01:43;;;;;;;10.10;3.25;;;9.30;99.90;;;;;;5032708;28;20056;-83
2022/12/25 07:04:30;;;;;;;11.70;3.40;;;9.30;99.90;;;;;;5033565;28;20079;-82
2022/12/25 07:06:57;;;;;;;10.50;3.60;;;9.40;99.90;;;;;;5047844;28;20033;-83
2022/12/25 07:09:23;;;;;;;8.70;3.13;;;9.40;99.90;;;;;;5031757;28;20370;-84
2022/12/25 07:11:48;;;;;;;8.33;3.10;;;9.40;99.90;;;;;;4998818;28;20028;-84
2022/12/25 07:14:19;;;;;;;9.23;3.10;;;9.40;99.90;;;;;;5032653;28;20021;-84
2022/12/25 07:16:45;;;;;;;9.53;3.13;;;9.50;99.90;;;;;;5031547;28;20026;-84
2022/12/25 07:19:11;;;;;;;10.33;2.70;;;9.40;99.90;;;;;;5032469;28;20045;-82
2022/12/25 07:21:36;;;;;;;10.73;3.80;;;9.50;99.90;;;;;;5031822;28;20484;-83
2022/12/25 07:24:02;;;;;;;7.90;3.20;;;9.60;99.90;;;;;;5031317;28;20026;-83
2022/12/25 07:26:27;;;;;;;9.70;2.83;;;9.60;99.90;;;;;;4998725;28;20051;-83
2022/12/25 07:28:54;;;;;;;7.60;2.73;;;9.60;99.90;;;;;;5032475;28;20120;-83
2022/12/25 07:31:20;;;;;;;7.40;3.20;;;9.70;99.90;;;;;;5031909;28;20026;-83
2022/12/25 07:33:46;;;;;;;11.10;3.43;;;9.70;99.90;;;;;;5030917;28;20026;-83
2022/12/25 07:36:13;;;;;;;16.03;4.33;;;9.70;99.90;;;;;;5031140;28;20172;-82
2022/12/25 07:38:40;;;;;;;9.50;4.43;;;9.70;99.90;;;;;;5031814;28;20041;-83
2022/12/25 07:41:12;;;;;;;9.57;4.50;;;9.70;99.90;;;;;;5032621;28;20367;-83
2022/12/25 07:43:37;;;;;;;9.83;3.63;;;9.70;99.90;;;;;;5031962;28;20388;-82
2022/12/25 07:46:04;;;;;;;15.30;4.77;;;9.80;99.90;;;;;;5031618;28;20167;-82
2022/12/25 07:48:30;;;;;;;11.80;4.47;;;9.80;99.90;;;;;;5032822;28;20033;-82
2022/12/25 07:51:04;;;;;;;10.87;4.23;;;9.80;99.90;;;;;;5032388;28;20030;-83
2022/12/25 07:53:30;;;;;;;16.07;5.43;;;9.80;99.90;;;;;;5030913;28;20030;-83
2022/12/25 07:56:02;;;;;;;12.37;5.10;;;9.80;99.90;;;;;;5035629;28;20053;-83
2022/12/25 07:58:28;;;;;;;10.90;4.80;;;9.80;99.90;;;;;;5036006;28;20053;-85
2022/12/25 08:00:55;;;;;;;14.00;4.53;;;9.80;99.90;;;;;;5035074;28;20529;-84
2022/12/25 08:03:20;;;;;;;13.10;5.30;;;9.80;99.90;;;;;;5035429;28;20059;-84
2022/12/25 08:05:46;;;;;;;12.23;5.00;;;9.80;99.90;;;;;;5036046;28;20069;-83
2022/12/25 08:08:12;;;;;;;12.37;4.37;;;9.80;99.90;;;;;;5018218;28;20101;-82
2022/12/25 08:10:37;;;;;;;12.77;5.10;;;9.80;99.90;;;;;;5035617;28;20029;-83
2022/12/25 08:13:03;;;;;;;10.23;5.97;;;9.90;99.90;;;;;;5034473;28;20031;-84
2022/12/25 08:15:32;;;;;;;14.13;5.93;;;9.80;99.90;;;;;;5034804;28;20030;-83
2022/12/25 08:17:57;;;;;;;11.47;5.27;;;9.90;99.90;;;;;;5035927;28;20036;-84
2022/12/25 08:20:23;;;;;;;11.13;5.10;;;9.90;99.90;;;;;;5034390;28;20109;-85
2022/12/25 08:22:48;;;;;;;10.73;5.07;;;9.90;99.90;;;;;;5032279;28;20032;-83
2022/12/25 08:25:14;;;;;;;14.77;4.43;;;9.90;99.90;;;;;;5034179;28;20536;-86
2022/12/25 08:27:40;;;;;;;11.67;4.73;;;9.90;99.90;;;;;;5018157;28;20421;-83
2022/12/25 08:30:06;;;;;;;12.40;4.77;;;10.00;99.90;;;;;;5018270;28;20033;-84
2022/12/25 08:32:32;;;;;;;14.17;4.93;;;9.90;99.90;;;;;;5018222;28;20117;-84
2022/12/25 08:34:58;;;;;;;16.60;4.87;;;9.90;99.90;;;;;;5034926;28;20105;-84
2022/12/25 08:37:23;;;;;;;12.80;5.07;;;9.90;99.90;;;;;;5017696;28;20040;-83
2022/12/25 08:39:49;;;;;;;10.47;4.13;;;10.00;99.90;;;;;;5025239;28;20477;-83
2022/12/25 08:42:15;;;;;;;10.07;3.43;;;10.00;99.90;;;;;;5016335;28;20053;-84
2022/12/25 08:44:40;;;;;;;10.70;3.77;;;10.00;99.90;;;;;;5033585;28;20098;-84
2022/12/25 08:47:06;;;;;;;9.17;3.77;;;10.00;99.90;;;;;;5017612;28;20402;-84
2022/12/25 08:49:31;;;;;;;9.93;4.13;;;10.00;99.90;;;;;;5035461;28;20144;-84
2022/12/25 08:51:57;;;;;;;10.37;3.57;;;10.00;99.90;;;;;;5017244;28;20474;-84
2022/12/25 08:54:23;;;;;;;10.90;4.00;;;10.10;99.90;;;;;;5034182;28;20036;-84
2022/12/25 08:56:49;;;;;;;8.47;3.20;;;10.00;99.90;;;;;;5034941;28;20030;-83
2022/12/25 08:59:14;;;;;;;10.87;3.83;;;10.00;99.90;;;;;;5034186;28;20376;-84
2022/12/25 09:01:40;;;;;;;10.43;4.07;;;10.10;99.90;;;;;;5017462;28;20116;-84
2022/12/25 09:04:06;;;;;;;9.50;3.63;;;10.10;99.90;;;;;;5016950;28;20057;-84
2022/12/25 09:06:31;;;;;;;10.20;4.03;;;10.10;99.90;;;;;;5029419;28;20119;-84
2022/12/25 09:08:57;;;;;;;10.57;3.80;;;10.10;99.90;;;;;;5012523;28;20032;-84
2022/12/25 09:11:23;;;;;;;9.27;3.20;;;10.10;99.90;;;;;;5031558;28;20109;-84
2022/12/25 09:13:49;;;;;;;12.00;3.50;;;10.10;99.90;;;;;;5033417;28;20030;-84
2022/12/25 09:16:18;;;;;;;7.67;3.40;;;10.20;99.90;;;;;;5032001;28;20116;-82
2022/12/25 09:18:43;;;;;;;8.63;3.73;;;10.20;99.90;;;;;;5032756;28;20025;-84
2022/12/25 09:21:11;;;;;;;8.97;3.47;;;10.20;99.90;;;;;;5032773;28;20022;-83
2022/12/25 09:23:37;;;;;;;8.90;4.00;;;10.20;99.90;;;;;;5015706;28;20057;-84
2022/12/25 09:26:05;;;;;;;7.83;3.70;;;10.20;99.90;;;;;;5000830;28;20076;-84
2022/12/25 09:28:31;;;;;;;11.60;4.00;;;10.20;99.90;;;;;;5034803;28;20083;-84
2022/12/25 09:30:56;;;;;;;8.63;3.93;;;10.20;99.90;;;;;;5033630;28;20028;-84
2022/12/25 09:33:22;;;;;;;10.93;3.87;;;10.30;99.90;;;;;;5049802;28;20037;-84
2022/12/25 09:35:56;;;;;;;11.03;3.90;;;10.20;99.90;;;;;;5035690;28;20091;-83
2022/12/25 09:38:22;;;;;;;9.63;3.83;;;10.20;99.90;;;;;;5033646;28;20036;-84
2022/12/25 09:40:56;;;;;;;10.20;3.73;;;10.20;99.90;;;;;;5049618;28;20026;-84
2022/12/25 09:43:22;;;;;;;10.48;4.10;;;10.30;99.90;;;;;;5034282;28;20090;-84
2022/12/25 09:45:48;;;;;;;10.20;3.50;;;10.20;99.90;;;;;;5030604;28;20049;-84
2022/12/25 09:48:15;;;;;;;9.60;3.90;;;10.20;99.90;;;;;;5016813;28;20039;-84
2022/12/25 09:50:57;;;;;;;8.03;4.07;;;10.30;99.90;;;;;;5031909;28;20030;-84
2022/12/25 09:53:38;;;;;;;10.97;3.93;;;10.30;99.90;;;;;;5033284;28;20029;-84
2022/12/25 09:56:12;;;;;;;7.73;3.60;;;10.30;99.90;;;;;;5033112;28;20025;-85
2022/12/25 09:58:38;;;;;;;7.07;3.10;;;10.30;99.90;;;;;;5034010;28;20025;-85
2022/12/25 10:01:27;;;;;;;8.83;3.20;;;10.30;99.90;;;;;;5015645;28;20108;-84
2022/12/25 10:04:04;;;;;;;7.73;2.90;;;10.30;99.90;;;;;;5034053;28;20409;-84
2022/12/25 10:06:38;;;;;;;8.30;2.47;;;10.40;99.90;;;;;;5032765;28;20052;-85
2022/12/25 10:09:45;;;;;;;6.80;2.30;;;10.40;99.90;;;;;;5034508;28;20018;-84
2022/12/25 10:12:29;;;;;;;7.67;2.60;;;10.40;99.90;;;;;;5010334;28;20060;-85
2022/12/25 10:15:06;;;;;;;7.88;2.67;;;10.40;99.90;;;;;;5048769;28;20064;-85
2022/12/25 10:17:41;;;;;;;6.28;1.90;;;10.40;99.90;;;;;;5033208;28;20061;-84
2022/12/25 10:20:47;;;;;;;7.53;2.30;;;10.50;99.90;;;;;;5033519;28;20025;-86
2022/12/25 10:23:21;;;;;;;6.10;1.90;;;10.50;99.90;;;;;;5028423;28;20060;-84
2022/12/25 10:25:47;;;;;;;5.13;1.90;;;10.60;99.90;;;;;;5030993;28;20059;-84
2022/12/25 10:28:20;;;;;;;6.13;1.80;;;10.60;99.90;;;;;;5031642;28;20026;-84
2022/12/25 10:30:47;;;;;;;6.03;2.00;;;10.60;99.90;;;;;;5039825;28;20482;-88
2022/12/25 10:33:14;;;;;;;9.40;2.43;;;10.60;99.90;;;;;;5041133;28;20068;-87
2022/12/25 10:35:40;;;;;;;5.60;2.20;;;10.60;99.90;;;;;;5032778;28;20037;-88
2022/12/25 10:38:14;;;;;;;5.00;1.97;;;10.60;99.90;;;;;;5034020;28;20474;-88
2022/12/25 10:41:04;;;;;;;6.85;2.85;;;10.60;99.90;;;;;;5036477;28;20441;-87
2022/12/25 10:43:41;;;;;;;5.43;2.57;;;10.60;99.90;;;;;;5050767;28;20039;-88
2022/12/25 10:46:14;;;;;;;7.80;3.13;;;10.60;99.90;;;;;;5031420;28;20037;-86
2022/12/25 10:48:47;;;;;;;8.98;3.45;;;10.70;99.90;;;;;;5028335;28;20033;-88
2022/12/25 10:51:24;;;;;;;9.80;3.53;;;10.70;99.90;;;;;;5027969;28;20030;-88
2022/12/25 10:53:50;;;;;;;7.23;3.70;;;10.70;99.90;;;;;;5035619;28;20186;-86
2022/12/25 10:56:16;;;;;;;9.07;4.20;;;10.70;99.90;;;;;;5020578;28;20358;-88
2022/12/25 10:58:42;;;;;;;9.90;4.03;;;10.70;99.90;;;;;;5037969;28;20022;-89
2022/12/25 11:01:09;;;;;;;10.90;4.47;;;10.70;99.90;;;;;;5019612;28;20508;-88
2022/12/25 11:03:48;;;;;;;8.52;4.32;;;10.70;99.90;;;;;;5017735;28;20090;-89
2022/12/25 11:06:27;;;;;;;8.30;3.83;;;10.70;99.90;;;;;;5033402;28;20570;-88
2022/12/25 11:08:59;;;;;;;6.87;3.57;;;10.70;99.90;;;;;;5032956;28;20026;-88
2022/12/25 11:11:25;;;;;;;8.70;4.23;;;10.70;99.90;;;;;;5033323;28;20025;-88
2022/12/25 11:13:54;;;;;;;8.23;4.20;;;10.70;99.90;;;;;;5032813;28;20547;-89
2022/12/25 11:16:31;;;;;;;8.73;4.33;;;10.70;99.90;;;;;;5031828;28;20029;-88
2022/12/25 11:18:58;;;;;;;10.70;4.27;;;10.60;99.90;;;;;;5033638;28;20060;-88
2022/12/25 11:21:25;;;;;;;8.07;3.73;;;10.60;99.90;;;;;;5031468;28;20026;-88
2022/12/25 11:24:01;;;;;;;8.53;4.80;;;10.60;99.90;;;;;;5032784;28;20041;-89
2022/12/25 11:26:29;;;;;;;14.88;5.07;;;10.60;99.90;;;;;;5033339;28;20072;-89
2022/12/25 11:28:55;;;;;;;14.27;5.43;;;10.70;99.90;;;;;;5032776;28;20597;-81
2022/12/25 11:31:39;;;;;;;13.00;5.07;;;10.70;99.90;;;;;;5038158;28;20056;-88
2022/12/25 11:34:08;;;;;;;15.43;5.30;;;10.60;99.90;;;;;;5036014;28;20037;-89
2022/12/25 11:36:43;;;;;;;11.10;4.73;;;10.70;99.90;;;;;;5037403;28;20466;-85
2022/12/25 11:39:22;;;;;;;11.80;3.80;;;10.70;99.90;;;;;;5036152;28;20030;-89
2022/12/25 11:41:52;;;;;;;9.13;4.00;;;10.70;99.90;;;;;;5036206;28;20052;-88
2022/12/25 11:44:26;;;;;;;8.60;3.60;;;10.70;99.90;;;;;;5053608;28;20548;-89
2022/12/25 11:46:54;;;;;;;12.27;5.10;;;10.70;99.90;;;;;;5037859;28;20041;-85
2022/12/25 11:49:20;;;;;;;10.95;4.35;;;10.70;99.90;;;;;;5035652;28;20132;-84
2022/12/25 11:51:51;;;;;;;10.47;4.80;;;10.70;99.90;;;;;;5051366;28;20064;-84
2022/12/25 11:54:30;;;;;;;11.13;4.67;;;10.70;99.90;;;;;;5035286;28;20025;-85
2022/12/25 11:56:59;;;;;;;9.70;4.50;;;10.70;99.90;;;;;;5031869;28;20036;-83
2022/12/25 11:59:52;;;;;;;10.80;4.53;;;10.70;99.90;;;;;;5051117;28;20032;-84
2022/12/25 12:02:27;;;;;;;9.00;3.77;;;10.70;99.90;;;;;;5034833;28;20398;-84
2022/12/25 12:05:06;;;;;;;11.13;4.43;;;10.80;99.90;;;;;;5050193;28;20032;-84
2022/12/25 12:07:34;;;;;;;8.83;4.23;;;10.80;99.90;;;;;;5034931;28;20029;-83
2022/12/25 12:10:08;;;;;;;7.97;3.73;;;10.80;99.90;;;;;;5017061;28;20032;-84
2022/12/25 12:12:42;;;;;;;9.43;3.60;;;10.80;99.90;;;;;;5051539;28;20065;-84
2022/12/25 12:15:10;;;;;;;8.50;3.47;;;10.80;99.90;;;;;;5051588;28;20036;-84
2022/12/25 12:17:36;;;;;;;8.03;3.33;;;10.80;99.90;;;;;;5035967;28;20026;-84
2022/12/25 12:20:32;;;;;;;7.68;3.50;;;10.80;99.90;;;;;;5035164;28;20512;-83
2022/12/25 12:23:00;;;;;;;7.50;3.90;;;10.80;99.90;;;;;;5035601;28;20363;-84
2022/12/25 12:25:27;;;;;;;9.80;3.40;;;10.80;99.90;;;;;;5034380;28;20021;-84
2022/12/25 12:27:59;;;;;;;10.07;3.83;;;10.80;99.90;;;;;;5034605;28;20036;-85
2022/12/25 12:30:33;;;;;;;7.47;4.00;;;10.80;99.90;;;;;;5050738;28;20025;-86
2022/12/25 12:33:01;;;;;;;9.57;3.53;;;10.80;99.90;;;;;;5035136;28;20032;-83
2022/12/25 12:35:31;;;;;;;7.93;3.67;;;10.80;99.90;;;;;;5035726;28;20079;-85
2022/12/25 12:38:02;;;;;;;10.33;4.30;;;10.80;99.90;;;;;;5036013;28;20025;-85
2022/12/25 12:40:32;;;;;;;8.63;3.80;;;10.80;99.90;;;;;;5033728;28;20021;-84
2022/12/25 12:42:59;;;;;;;7.57;4.20;;;10.70;99.90;;;;;;5033234;28;20056;-84
2022/12/25 12:45:28;;;;;;;10.33;4.00;;;10.80;99.90;;;;;;5034241;28;20377;-85
2022/12/25 12:47:54;;;;;;;8.37;4.33;;;10.70;99.90;;;;;;5034625;28;20021;-84
2022/12/25 12:50:41;;;;;;;12.30;4.33;;;10.70;99.90;;;;;;5034030;28;20109;-83
2022/12/25 12:53:24;;;;;;;8.00;4.05;;;10.70;99.90;;;;;;5017709;28;20026;-84
2022/12/25 12:55:51;;;;;;;10.00;4.60;;;10.70;99.90;;;;;;5049158;28;20064;-84
2022/12/25 12:58:32;;;;;;;8.40;4.20;;;10.70;99.90;;;;;;5048402;28;20350;-84
2022/12/25 13:01:25;;;;;;;9.63;4.43;;;10.70;99.90;;;;;;5034449;28;20120;-84
2022/12/25 13:04:23;;;;;;;11.63;4.27;;;10.70;99.90;;;;;;5032853;28;20029;-83
2022/12/25 13:07:15;;;;;;;8.80;4.20;;;10.70;99.90;;;;;;5047375;28;20068;-82
2022/12/25 13:09:56;;;;;;;8.30;3.73;;;10.70;99.90;;;;;;5017889;28;20397;-83
2022/12/25 13:12:22;;;;;;;6.50;3.70;;;10.70;99.90;;;;;;5032316;28;20072;-84
2022/12/25 13:14:48;;;;;;;6.87;3.70;;;10.70;99.90;;;;;;5038199;28;20136;-82
2022/12/25 13:17:21;;;;;;;10.30;3.80;;;10.70;99.90;;;;;;5032596;28;20116;-84
2022/12/25 13:19:56;;;;;;;7.80;4.07;;;10.70;99.90;;;;;;5030976;28;20021;-83
2022/12/25 13:22:33;;;;;;;8.23;3.63;;;10.70;99.90;;;;;;5033679;28;20027;-84
2022/12/25 13:25:03;;;;;;;7.67;4.03;;;10.70;99.90;;;;;;5048811;28;20053;-83
2022/12/25 13:27:31;;;;;;;8.77;4.17;;;10.70;99.90;;;;;;5032833;28;20069;-83
2022/12/25 13:29:57;;;;;;;9.07;4.20;;;10.70;99.90;;;;;;5030373;28;20099;-83
2022/12/25 13:32:28;;;;;;;10.80;5.13;;;10.70;99.90;;;;;;5032723;28;20160;-83
2022/12/25 13:34:54;;;;;;;9.33;4.43;;;10.70;99.90;;;;;;5031401;28;20466;-84
2022/12/25 13:37:23;;;;;;;11.67;6.03;;;10.70;99.90;;;;;;5030544;28;20378;-83
2022/12/25 13:40:02;;;;;;;8.30;4.67;;;10.70;99.90;;;;;;5031002;28;20458;-84
2022/12/25 13:42:30;;;;;;;8.03;4.60;;;10.70;99.90;;;;;;5032564;28;20055;-83
2022/12/25 13:44:59;;;;;;;9.77;4.90;;;10.70;99.90;;;;;;5031597;28;20036;-84
2022/12/25 13:47:30;;;;;;;10.10;5.00;;;10.70;99.90;;;;;;5032572;28;20090;-84
2022/12/25 13:49:57;;;;;;;9.30;4.83;;;10.80;99.90;;;;;;5033950;28;20400;-83
2022/12/25 13:52:31;;;;;;;8.83;4.93;;;10.70;99.90;;;;;;5033206;28;20025;-84
2022/12/25 13:55:03;;;;;;;8.47;4.40;;;10.70;99.90;;;;;;5032749;28;20497;-84
2022/12/25 13:57:33;;;;;;;8.57;5.17;;;10.70;99.90;;;;;;5034079;28;20026;-84
2022/12/25 14:00:00;;;;;;;8.33;4.73;;;10.70;99.90;;;;;;5032469;28;20363;-84
2022/12/25 14:02:33;;;;;;;9.63;5.30;;;10.80;99.90;;;;;;5032881;28;20470;-83
2022/12/25 14:04:58;;;;;;;8.77;5.23;;;10.70;99.90;;;;;;5032488;28;20025;-84
2022/12/25 14:07:24;;;;;;;7.67;4.40;;;10.70;99.90;;;;;;5034176;28;20492;-84
2022/12/25 14:10:00;;;;;;;11.00;5.53;;;10.70;99.90;;;;;;5032567;28;20120;-83
2022/12/25 14:12:29;;;;;;;8.23;4.97;;;10.70;99.90;;;;;;5032662;28;20026;-84
2022/12/25 14:14:57;;;;;;;8.60;4.93;;;10.70;99.90;;;;;;5033522;28;20052;-83
2022/12/25 14:17:23;;;;;;;10.10;5.07;;;10.70;99.90;;;;;;5032363;28;20037;-83
2022/12/25 14:19:58;;;;;;;9.57;5.67;;;10.80;99.90;;;;;;5016029;28;20029;-83
2022/12/25 14:22:24;;;;;;;;;;;10.80;99.90;;;;;;5032808;28;20117;-84
2022/12/25 14:24:49;;;;;;;10.10;5.93;;;10.80;99.90;;;;;;5016021;28;19932;-84
2022/12/25 14:27:19;;;;;;;11.47;5.57;;;10.80;99.90;;;;;;4999238;28;20489;-83
2022/12/25 14:29:47;;;;;;;8.60;4.93;;;10.80;99.90;;;;;;5048593;28;20030;-83
2022/12/25 14:32:22;;;;;;;9.80;5.30;;;10.80;99.90;;;;;;5032242;28;20504;-84
2022/12/25 14:34:55;;;;;;;10.17;5.43;;;10.80;99.90;;;;;;5031921;28;20033;-84
2022/12/25 14:37:26;;;;;;;9.10;5.53;;;10.80;99.90;;;;;;5031876;28;20036;-84
2022/12/25 14:40:00;;;;;;;12.97;5.97;;;10.80;99.90;;;;;;5032820;28;20026;-83
2022/12/25 14:42:27;;;;;;;;;;;10.80;99.90;;;;;;5033551;28;20049;-84